sensor_id;sensor_type;location;lat;lon;timestamp;pressure;altitude;pressure_sealevel;temperature;humidity
3544;BME280;1786;52.870;9.578;2024-01-30T00:01:17;101827.97;;;13.25;52.13
3544;BME280;1786;52.870;9.578;2024-01-30T00:03:44;101822.47;;;13.46;51.69
3544;BME280;1786;52.870;9.578;2024-01-30T00:06:11;101826.22;;;13.57;51.35
3544;BME280;1786;52.870;9.578;2024-01-30T00:08:38;101816.97;;;13.64;51.21
3544;BME280;1786;52.870;9.578;2024-01-30T00:11:07;101809.63;;;13.54;50.76
3544;BME280;1786;52.870;9.578;2024-01-30T00:13:34;101806.00;;;13.55;51.05
3544;BME280;1786;52.870;9.578;2024-01-30T00:16:00;101807.00;;;13.68;50.20
3544;BME280;1786;52.870;9.578;2024-01-30T00:18:27;101810.63;;;13.67;50.11
3544;BME280;1786;52.870;9.578;2024-01-30T00:20:54;101810.38;;;13.72;49.29
3544;BME280;1786;52.870;9.578;2024-01-30T00:23:21;101811.31;;;13.55;50.37
3544;BME280;1786;52.870;9.578;2024-01-30T00:25:47;101816.63;;;13.39;50.93
3544;BME280;1786;52.870;9.578;2024-01-30T00:28:14;101809.09;;;13.31;50.93
3544;BME280;1786;52.870;9.578;2024-01-30T00:30:41;101808.34;;;13.12;51.59
3544;BME280;1786;52.870;9.578;2024-01-30T00:33:09;101802.91;;;12.97;52.05
3544;BME280;1786;52.870;9.578;2024-01-30T00:35:36;101807.41;;;12.80;52.74
3544;BME280;1786;52.870;9.578;2024-01-30T00:38:03;101801.91;;;12.67;53.19
3544;BME280;1786;52.870;9.578;2024-01-30T00:40:30;101803.72;;;12.49;54.02
3544;BME280;1786;52.870;9.578;2024-01-30T00:42:56;101805.53;;;12.31;54.25
3544;BME280;1786;52.870;9.578;2024-01-30T00:45:23;101805.53;;;12.48;54.10
3544;BME280;1786;52.870;9.578;2024-01-30T00:47:50;101802.88;;;12.48;54.19
3544;BME280;1786;52.870;9.578;2024-01-30T00:50:17;101805.97;;;12.56;54.29
3544;BME280;1786;52.870;9.578;2024-01-30T00:52:44;101806.91;;;12.73;53.68
3544;BME280;1786;52.870;9.578;2024-01-30T00:55:12;101810.03;;;12.46;54.48
3544;BME280;1786;52.870;9.578;2024-01-30T00:57:39;101804.34;;;12.54;54.10
3544;BME280;1786;52.870;9.578;2024-01-30T01:00:10;101814.38;;;12.65;53.85
3544;BME280;1786;52.870;9.578;2024-01-30T01:02:37;101814.81;;;12.90;53.64
3544;BME280;1786;52.870;9.578;2024-01-30T01:05:06;101801.81;;;13.02;53.28
3544;BME280;1786;52.870;9.578;2024-01-30T01:07:32;101807.25;;;13.16;52.76
3544;BME280;1786;52.870;9.578;2024-01-30T01:09:59;101800.31;;;13.13;53.01
3544;BME280;1786;52.870;9.578;2024-01-30T01:12:26;101809.06;;;13.15;52.61
3544;BME280;1786;52.870;9.578;2024-01-30T01:14:53;101807.31;;;12.98;53.11
3544;BME280;1786;52.870;9.578;2024-01-30T01:17:19;101808.75;;;13.04;53.01
3544;BME280;1786;52.870;9.578;2024-01-30T01:19:46;101804.47;;;13.02;52.94
3544;BME280;1786;52.870;9.578;2024-01-30T01:22:13;101808.16;;;12.99;53.01
3544;BME280;1786;52.870;9.578;2024-01-30T01:24:40;101801.69;;;13.20;52.53
3544;BME280;1786;52.870;9.578;2024-01-30T01:27:07;101802.44;;;13.23;52.41
3544;BME280;1786;52.870;9.578;2024-01-30T01:29:33;101805.31;;;13.35;52.14
3544;BME280;1786;52.870;9.578;2024-01-30T01:32:00;101801.06;;;13.49;51.69
3544;BME280;1786;52.870;9.578;2024-01-30T01:34:27;101802.25;;;13.59;51.78
3544;BME280;1786;52.870;9.578;2024-01-30T01:36:56;101800.25;;;13.62;51.43
3544;BME280;1786;52.870;9.578;2024-01-30T01:39:23;101798.44;;;13.63;51.30
3544;BME280;1786;52.870;9.578;2024-01-30T01:41:50;101797.72;;;13.61;50.64
3544;BME280;1786;52.870;9.578;2024-01-30T01:44:17;101799.00;;;13.54;50.43
3544;BME280;1786;52.870;9.578;2024-01-30T01:46:45;101804.56;;;13.49;50.19
3544;BME280;1786;52.870;9.578;2024-01-30T01:49:13;101796.84;;;13.45;50.18
3544;BME280;1786;52.870;9.578;2024-01-30T01:51:41;101803.25;;;13.40;49.70
3544;BME280;1786;52.870;9.578;2024-01-30T01:54:08;101793.00;;;13.34;49.87
3544;BME280;1786;52.870;9.578;2024-01-30T01:56:35;101788.53;;;13.35;50.03
3544;BME280;1786;52.870;9.578;2024-01-30T01:59:07;101790.25;;;13.36;50.38
3544;BME280;1786;52.870;9.578;2024-01-30T02:01:38;101779.44;;;13.23;51.39
3544;BME280;1786;52.870;9.578;2024-01-30T02:04:07;101776.06;;;12.88;52.29
3544;BME280;1786;52.870;9.578;2024-01-30T02:06:35;101772.94;;;12.29;54.32
3544;BME280;1786;52.870;9.578;2024-01-30T02:09:02;101777.31;;;12.47;54.23
3544;BME280;1786;52.870;9.578;2024-01-30T02:11:28;101769.59;;;12.43;54.02
3544;BME280;1786;52.870;9.578;2024-01-30T02:13:55;101769.03;;;12.36;54.72
3544;BME280;1786;52.870;9.578;2024-01-30T02:16:22;101760.94;;;12.22;55.15
3544;BME280;1786;52.870;9.578;2024-01-30T02:18:49;101764.38;;;12.06;55.65
3544;BME280;1786;52.870;9.578;2024-01-30T02:21:18;101762.19;;;12.32;55.19
3544;BME280;1786;52.870;9.578;2024-01-30T02:23:49;101748.63;;;12.21;55.41
3544;BME280;1786;52.870;9.578;2024-01-30T02:26:16;101756.59;;;12.21;55.38
3544;BME280;1786;52.870;9.578;2024-01-30T02:28:43;101749.19;;;12.27;55.24
3544;BME280;1786;52.870;9.578;2024-01-30T02:31:10;101740.00;;;12.17;56.00
3544;BME280;1786;52.870;9.578;2024-01-30T02:33:36;101743.28;;;12.22;55.89
3544;BME280;1786;52.870;9.578;2024-01-30T02:36:03;101734.22;;;12.09;55.90
3544;BME280;1786;52.870;9.578;2024-01-30T02:38:30;101740.34;;;12.27;55.40
3544;BME280;1786;52.870;9.578;2024-01-30T02:40:57;101746.00;;;12.21;56.05
3544;BME280;1786;52.870;9.578;2024-01-30T02:43:24;101742.88;;;12.12;55.78
3544;BME280;1786;52.870;9.578;2024-01-30T02:45:50;101737.06;;;12.39;55.89
3544;BME280;1786;52.870;9.578;2024-01-30T02:48:17;101726.56;;;12.71;54.58
3544;BME280;1786;52.870;9.578;2024-01-30T02:50:44;101728.56;;;12.83;54.74
3544;BME280;1786;52.870;9.578;2024-01-30T02:53:11;101727.78;;;12.97;54.08
3544;BME280;1786;52.870;9.578;2024-01-30T02:55:37;101729.75;;;12.93;54.13
3544;BME280;1786;52.870;9.578;2024-01-30T02:58:04;101727.00;;;12.79;54.25
3544;BME280;1786;52.870;9.578;2024-01-30T03:00:31;101726.50;;;12.88;54.61
3544;BME280;1786;52.870;9.578;2024-01-30T03:02:58;101728.78;;;12.78;54.52
3544;BME280;1786;52.870;9.578;2024-01-30T03:05:24;101731.47;;;12.94;54.50
3544;BME280;1786;52.870;9.578;2024-01-30T03:07:51;101726.88;;;12.98;54.24
3544;BME280;1786;52.870;9.578;2024-01-30T03:10:18;101719.84;;;13.13;53.78
3544;BME280;1786;52.870;9.578;2024-01-30T03:12:45;101719.50;;;13.19;53.52
3544;BME280;1786;52.870;9.578;2024-01-30T03:15:12;101720.34;;;13.04;53.86
3544;BME280;1786;52.870;9.578;2024-01-30T03:17:39;101722.91;;;12.89;54.06
3544;BME280;1786;52.870;9.578;2024-01-30T03:20:06;101719.47;;;12.87;54.07
3544;BME280;1786;52.870;9.578;2024-01-30T03:22:33;101713.13;;;12.74;54.72
3544;BME280;1786;52.870;9.578;2024-01-30T03:25:00;101711.56;;;12.70;54.93
3544;BME280;1786;52.870;9.578;2024-01-30T03:27:27;101702.00;;;12.67;54.90
3544;BME280;1786;52.870;9.578;2024-01-30T03:29:54;101707.66;;;12.77;54.58
3544;BME280;1786;52.870;9.578;2024-01-30T03:32:20;101711.13;;;13.11;54.08
3544;BME280;1786;52.870;9.578;2024-01-30T03:34:47;101704.66;;;13.15;53.90
3544;BME280;1786;52.870;9.578;2024-01-30T03:37:14;101703.09;;;13.28;53.51
3544;BME280;1786;52.870;9.578;2024-01-30T03:39:41;101692.47;;;13.28;53.85
3544;BME280;1786;52.870;9.578;2024-01-30T03:42:08;101698.53;;;13.14;54.21
3544;BME280;1786;52.870;9.578;2024-01-30T03:44:35;101687.56;;;12.73;55.30
3544;BME280;1786;52.870;9.578;2024-01-30T03:47:02;101680.56;;;12.39;56.42
3544;BME280;1786;52.870;9.578;2024-01-30T03:49:28;101687.06;;;12.33;56.59
3544;BME280;1786;52.870;9.578;2024-01-30T03:51:55;101693.34;;;12.15;56.74
3544;BME280;1786;52.870;9.578;2024-01-30T03:54:22;101696.28;;;12.08;56.87
3544;BME280;1786;52.870;9.578;2024-01-30T03:56:49;101683.84;;;11.93;57.72
3544;BME280;1786;52.870;9.578;2024-01-30T03:59:16;101684.72;;;12.09;57.26
3544;BME280;1786;52.870;9.578;2024-01-30T04:01:46;101689.84;;;12.47;56.38
3544;BME280;1786;52.870;9.578;2024-01-30T04:04:13;101685.88;;;12.54;56.05
3544;BME280;1786;52.870;9.578;2024-01-30T04:06:40;101689.53;;;12.85;55.41
3544;BME280;1786;52.870;9.578;2024-01-30T04:09:07;101685.44;;;13.11;54.65
3544;BME280;1786;52.870;9.578;2024-01-30T04:11:34;101689.72;;;13.14;54.64
3544;BME280;1786;52.870;9.578;2024-01-30T04:14:02;101687.06;;;12.98;54.58
3544;BME280;1786;52.870;9.578;2024-01-30T04:16:28;101687.56;;;12.89;55.08
3544;BME280;1786;52.870;9.578;2024-01-30T04:18:56;101687.47;;;12.74;55.37
3544;BME280;1786;52.870;9.578;2024-01-30T04:21:22;101691.66;;;12.78;55.34
3544;BME280;1786;52.870;9.578;2024-01-30T04:23:51;101686.53;;;12.42;56.29
3544;BME280;1786;52.870;9.578;2024-01-30T04:26:18;101686.22;;;12.48;55.93
3544;BME280;1786;52.870;9.578;2024-01-30T04:28:45;101687.63;;;12.71;55.37
3544;BME280;1786;52.870;9.578;2024-01-30T04:31:12;101686.28;;;12.80;54.71
3544;BME280;1786;52.870;9.578;2024-01-30T04:33:39;101697.41;;;13.03;54.56
3544;BME280;1786;52.870;9.578;2024-01-30T04:36:08;101692.38;;;13.14;53.90
3544;BME280;1786;52.870;9.578;2024-01-30T04:38:38;101694.31;;;13.26;53.75
3544;BME280;1786;52.870;9.578;2024-01-30T04:41:05;101689.72;;;13.30;52.96
3544;BME280;1786;52.870;9.578;2024-01-30T04:43:32;101684.50;;;13.28;53.29
3544;BME280;1786;52.870;9.578;2024-01-30T04:45:59;101689.53;;;13.17;53.57
3544;BME280;1786;52.870;9.578;2024-01-30T04:48:26;101685.28;;;12.83;54.57
3544;BME280;1786;52.870;9.578;2024-01-30T04:50:54;101679.56;;;12.57;55.46
3544;BME280;1786;52.870;9.578;2024-01-30T04:53:22;101684.91;;;12.40;56.11
3544;BME280;1786;52.870;9.578;2024-01-30T04:55:49;101679.47;;;11.92;57.68
3544;BME280;1786;52.870;9.578;2024-01-30T04:58:16;101682.34;;;11.34;59.47
3544;BME280;1786;52.870;9.578;2024-01-30T05:00:43;101675.63;;;11.09;60.32
3544;BME280;1786;52.870;9.578;2024-01-30T05:03:11;101686.25;;;11.26;60.30
3544;BME280;1786;52.870;9.578;2024-01-30T05:05:38;101678.25;;;11.09;60.81
3544;BME280;1786;52.870;9.578;2024-01-30T05:08:05;101674.97;;;11.04;61.16
3544;BME280;1786;52.870;9.578;2024-01-30T05:10:32;101671.50;;;10.85;61.78
3544;BME280;1786;52.870;9.578;2024-01-30T05:12:58;101664.75;;;10.77;62.44
3544;BME280;1786;52.870;9.578;2024-01-30T05:15:25;101665.03;;;11.09;61.61
3544;BME280;1786;52.870;9.578;2024-01-30T05:17:53;101663.78;;;10.99;61.66
3544;BME280;1786;52.870;9.578;2024-01-30T05:20:20;101662.13;;;11.33;60.75
3544;BME280;1786;52.870;9.578;2024-01-30T05:22:47;101672.66;;;11.52;60.48
3544;BME280;1786;52.870;9.578;2024-01-30T05:25:14;101671.19;;;11.63;60.31
3544;BME280;1786;52.870;9.578;2024-01-30T05:27:42;101665.53;;;11.88;59.55
3544;BME280;1786;52.870;9.578;2024-01-30T05:30:09;101670.41;;;11.96;59.43
3544;BME280;1786;52.870;9.578;2024-01-30T05:32:36;101672.44;;;11.91;59.59
3544;BME280;1786;52.870;9.578;2024-01-30T05:35:03;101670.56;;;11.76;59.73
3544;BME280;1786;52.870;9.578;2024-01-30T05:37:30;101677.09;;;11.86;60.06
3544;BME280;1786;52.870;9.578;2024-01-30T05:39:57;101670.84;;;11.35;61.11
3544;BME280;1786;52.870;9.578;2024-01-30T05:42:25;101663.94;;;11.50;60.85
3544;BME280;1786;52.870;9.578;2024-01-30T05:44:52;101669.31;;;11.65;60.68
3544;BME280;1786;52.870;9.578;2024-01-30T05:47:20;101669.47;;;11.80;60.25
3544;BME280;1786;52.870;9.578;2024-01-30T05:49:47;101665.47;;;11.90;60.23
3544;BME280;1786;52.870;9.578;2024-01-30T05:52:14;101666.69;;;12.00;59.88
3544;BME280;1786;52.870;9.578;2024-01-30T05:54:42;101667.22;;;11.55;61.07
3544;BME280;1786;52.870;9.578;2024-01-30T05:57:09;101666.03;;;11.60;61.48
3544;BME280;1786;52.870;9.578;2024-01-30T05:59:37;101664.31;;;11.77;60.46
3544;BME280;1786;52.870;9.578;2024-01-30T06:02:08;101658.34;;;12.08;59.92
3544;BME280;1786;52.870;9.578;2024-01-30T06:04:35;101665.56;;;12.04;60.23
3544;BME280;1786;52.870;9.578;2024-01-30T06:07:02;101656.78;;;11.86;60.32
3544;BME280;1786;52.870;9.578;2024-01-30T06:09:30;101662.03;;;11.88;60.46
3544;BME280;1786;52.870;9.578;2024-01-30T06:11:57;101664.41;;;11.75;61.31
3544;BME280;1786;52.870;9.578;2024-01-30T06:14:24;101662.81;;;11.90;61.11
3544;BME280;1786;52.870;9.578;2024-01-30T06:16:51;101655.66;;;11.92;60.50
3544;BME280;1786;52.870;9.578;2024-01-30T06:19:19;101660.34;;;12.20;60.25
3544;BME280;1786;52.870;9.578;2024-01-30T06:21:46;101662.03;;;12.54;58.71
3544;BME280;1786;52.870;9.578;2024-01-30T06:24:13;101658.69;;;12.35;59.04
3544;BME280;1786;52.870;9.578;2024-01-30T06:26:40;101654.84;;;12.07;60.14
3544;BME280;1786;52.870;9.578;2024-01-30T06:29:08;101653.22;;;12.38;59.42
3544;BME280;1786;52.870;9.578;2024-01-30T06:31:41;101654.06;;;12.54;59.23
3544;BME280;1786;52.870;9.578;2024-01-30T06:34:11;101651.97;;;12.12;59.85
3544;BME280;1786;52.870;9.578;2024-01-30T06:36:39;101653.84;;;11.93;60.40
3544;BME280;1786;52.870;9.578;2024-01-30T06:39:06;101654.19;;;12.20;60.35
3544;BME280;1786;52.870;9.578;2024-01-30T06:41:33;101644.06;;;12.44;59.23
3544;BME280;1786;52.870;9.578;2024-01-30T06:44:04;101652.50;;;12.34;59.40
3544;BME280;1786;52.870;9.578;2024-01-30T06:46:33;101651.94;;;12.45;59.20
3544;BME280;1786;52.870;9.578;2024-01-30T06:49:00;101652.47;;;12.19;59.59
3544;BME280;1786;52.870;9.578;2024-01-30T06:51:27;101661.28;;;12.19;59.49
3544;BME280;1786;52.870;9.578;2024-01-30T06:53:54;101661.03;;;12.24;60.02
3544;BME280;1786;52.870;9.578;2024-01-30T06:56:21;101654.69;;;12.10;60.24
3544;BME280;1786;52.870;9.578;2024-01-30T06:58:48;101659.34;;;12.23;59.60
3544;BME280;1786;52.870;9.578;2024-01-30T07:01:16;101661.53;;;12.15;59.96
3544;BME280;1786;52.870;9.578;2024-01-30T07:03:43;101663.16;;;12.50;59.11
3544;BME280;1786;52.870;9.578;2024-01-30T07:06:10;101661.16;;;12.38;58.99
3544;BME280;1786;52.870;9.578;2024-01-30T07:08:37;101665.88;;;12.49;59.17
3544;BME280;1786;52.870;9.578;2024-01-30T07:11:07;101661.19;;;12.54;58.93
3544;BME280;1786;52.870;9.578;2024-01-30T07:13:35;101660.28;;;12.71;58.27
3544;BME280;1786;52.870;9.578;2024-01-30T07:16:02;101663.53;;;12.76;58.36
3544;BME280;1786;52.870;9.578;2024-01-30T07:18:29;101661.28;;;12.84;58.49
3544;BME280;1786;52.870;9.578;2024-01-30T07:20:56;101660.91;;;12.43;58.70
3544;BME280;1786;52.870;9.578;2024-01-30T07:23:23;101659.38;;;12.54;58.97
3544;BME280;1786;52.870;9.578;2024-01-30T07:25:50;101651.25;;;12.08;60.01
3544;BME280;1786;52.870;9.578;2024-01-30T07:28:18;101651.16;;;12.27;60.00
3544;BME280;1786;52.870;9.578;2024-01-30T07:30:46;101643.81;;;12.48;59.23
3544;BME280;1786;52.870;9.578;2024-01-30T07:33:15;101644.94;;;12.11;60.06
3544;BME280;1786;52.870;9.578;2024-01-30T07:35:43;101643.09;;;12.29;60.15
3544;BME280;1786;52.870;9.578;2024-01-30T07:38:10;101640.88;;;12.37;59.50
3544;BME280;1786;52.870;9.578;2024-01-30T07:40:37;101635.44;;;12.40;59.63
3544;BME280;1786;52.870;9.578;2024-01-30T07:43:05;101643.81;;;12.48;59.32
3544;BME280;1786;52.870;9.578;2024-01-30T07:45:32;101636.19;;;12.09;60.55
3544;BME280;1786;52.870;9.578;2024-01-30T07:48:02;101636.47;;;12.53;59.67
3544;BME280;1786;52.870;9.578;2024-01-30T07:50:29;101634.59;;;12.55;59.64
3544;BME280;1786;52.870;9.578;2024-01-30T07:52:57;101630.31;;;12.53;59.89
3544;BME280;1786;52.870;9.578;2024-01-30T07:55:23;101626.97;;;12.49;59.55
3544;BME280;1786;52.870;9.578;2024-01-30T07:57:55;101627.56;;;12.54;59.45
3544;BME280;1786;52.870;9.578;2024-01-30T08:00:22;101635.09;;;12.62;59.68
3544;BME280;1786;52.870;9.578;2024-01-30T08:02:50;101635.06;;;12.30;60.57
3544;BME280;1786;52.870;9.578;2024-01-30T08:05:17;101633.53;;;12.42;60.24
3544;BME280;1786;52.870;9.578;2024-01-30T08:07:45;101639.00;;;12.39;60.39
3544;BME280;1786;52.870;9.578;2024-01-30T08:10:13;101628.56;;;12.20;60.64
3544;BME280;1786;52.870;9.578;2024-01-30T08:12:40;101628.91;;;12.30;61.09
3544;BME280;1786;52.870;9.578;2024-01-30T08:15:08;101622.50;;;12.01;61.49
3544;BME280;1786;52.870;9.578;2024-01-30T08:17:35;101624.88;;;12.23;61.64
3544;BME280;1786;52.870;9.578;2024-01-30T08:20:02;101623.47;;;12.65;60.49
3544;BME280;1786;52.870;9.578;2024-01-30T08:22:31;101628.25;;;12.09;61.41
3544;BME280;1786;52.870;9.578;2024-01-30T08:24:59;101619.00;;;12.33;61.55
3544;BME280;1786;52.870;9.578;2024-01-30T08:27:29;101626.69;;;12.22;61.08
3544;BME280;1786;52.870;9.578;2024-01-30T08:29:56;101618.16;;;12.00;61.87
3544;BME280;1786;52.870;9.578;2024-01-30T08:32:23;101621.66;;;11.65;62.97
3544;BME280;1786;52.870;9.578;2024-01-30T08:34:50;101614.06;;;11.59;63.50
3544;BME280;1786;52.870;9.578;2024-01-30T08:37:18;101610.06;;;11.68;63.41
3544;BME280;1786;52.870;9.578;2024-01-30T08:39:45;101611.13;;;11.99;62.68
3544;BME280;1786;52.870;9.578;2024-01-30T08:42:13;101617.28;;;11.99;62.23
3544;BME280;1786;52.870;9.578;2024-01-30T08:44:40;101613.03;;;12.30;61.89
3544;BME280;1786;52.870;9.578;2024-01-30T08:47:07;101612.44;;;12.56;60.80
3544;BME280;1786;52.870;9.578;2024-01-30T08:49:34;101608.47;;;12.32;61.75
3544;BME280;1786;52.870;9.578;2024-01-30T08:52:02;101609.19;;;12.67;60.83
3544;BME280;1786;52.870;9.578;2024-01-30T08:54:30;101612.19;;;12.61;61.15
3544;BME280;1786;52.870;9.578;2024-01-30T08:56:57;101619.88;;;12.97;60.48
3544;BME280;1786;52.870;9.578;2024-01-30T08:59:25;101621.69;;;12.81;60.48
3544;BME280;1786;52.870;9.578;2024-01-30T09:01:52;101621.03;;;13.39;59.55
3544;BME280;1786;52.870;9.578;2024-01-30T09:04:37;101616.38;;;13.88;58.11
3544;BME280;1786;52.870;9.578;2024-01-30T09:07:05;101627.41;;;13.81;58.33
3544;BME280;1786;52.870;9.578;2024-01-30T09:09:38;101624.09;;;13.92;58.41
3544;BME280;1786;52.870;9.578;2024-01-30T09:12:07;101632.28;;;13.59;58.54
3544;BME280;1786;52.870;9.578;2024-01-30T09:14:37;101621.50;;;13.76;58.40
3544;BME280;1786;52.870;9.578;2024-01-30T09:17:04;101625.44;;;13.55;58.62
3544;BME280;1786;52.870;9.578;2024-01-30T09:19:31;101626.88;;;14.19;57.65
3544;BME280;1786;52.870;9.578;2024-01-30T09:21:59;101629.50;;;14.34;57.61
3544;BME280;1786;52.870;9.578;2024-01-30T09:24:27;101618.69;;;14.37;57.44
3544;BME280;1786;52.870;9.578;2024-01-30T09:26:55;101636.34;;;14.09;58.14
3544;BME280;1786;52.870;9.578;2024-01-30T09:29:22;101641.25;;;13.87;58.52
3544;BME280;1786;52.870;9.578;2024-01-30T09:31:49;101636.91;;;14.28;57.28
3544;BME280;1786;52.870;9.578;2024-01-30T09:34:16;101638.63;;;14.29;57.45
3544;BME280;1786;52.870;9.578;2024-01-30T09:36:44;101632.63;;;14.26;57.85
3544;BME280;1786;52.870;9.578;2024-01-30T09:39:11;101629.41;;;14.49;57.21
3544;BME280;1786;52.870;9.578;2024-01-30T09:41:45;101628.94;;;14.99;56.19
3544;BME280;1786;52.870;9.578;2024-01-30T09:44:19;101630.66;;;14.29;57.04
3544;BME280;1786;52.870;9.578;2024-01-30T09:46:48;101629.19;;;14.81;56.66
3544;BME280;1786;52.870;9.578;2024-01-30T09:49:15;101626.63;;;14.51;57.15
3544;BME280;1786;52.870;9.578;2024-01-30T09:54:49;101627.97;;;15.27;55.62
3544;BME280;1786;52.870;9.578;2024-01-30T09:57:16;101626.25;;;15.53;55.11
3544;BME280;1786;52.870;9.578;2024-01-30T09:59:42;101630.34;;;16.10;53.92
3544;BME280;1786;52.870;9.578;2024-01-30T10:02:10;101627.59;;;16.24;54.60
3544;BME280;1786;52.870;9.578;2024-01-30T10:04:37;101622.69;;;16.67;53.11
3544;BME280;1786;52.870;9.578;2024-01-30T10:07:04;101626.22;;;16.81;52.32
3544;BME280;1786;52.870;9.578;2024-01-30T10:09:34;101623.91;;;17.24;51.64
3544;BME280;1786;52.870;9.578;2024-01-30T10:12:01;101619.47;;;16.38;52.98
3544;BME280;1786;52.870;9.578;2024-01-30T10:14:30;101620.56;;;17.09;51.74
3544;BME280;1786;52.870;9.578;2024-01-30T10:16:57;101623.25;;;17.21;51.13
3544;BME280;1786;52.870;9.578;2024-01-30T10:19:24;101624.50;;;17.87;50.03
3544;BME280;1786;52.870;9.578;2024-01-30T10:21:51;101627.06;;;17.65;50.13
3544;BME280;1786;52.870;9.578;2024-01-30T10:24:18;101624.72;;;17.84;50.40
3544;BME280;1786;52.870;9.578;2024-01-30T10:26:45;101626.31;;;17.51;50.81
3544;BME280;1786;52.870;9.578;2024-01-30T10:29:12;101623.31;;;17.79;50.80
3544;BME280;1786;52.870;9.578;2024-01-30T10:31:39;101636.44;;;17.70;50.56
3544;BME280;1786;52.870;9.578;2024-01-30T10:34:06;101626.19;;;17.88;50.66
3544;BME280;1786;52.870;9.578;2024-01-30T10:36:48;101623.41;;;18.12;50.29
3544;BME280;1786;52.870;9.578;2024-01-30T10:39:17;101620.22;;;18.64;49.24
3544;BME280;1786;52.870;9.578;2024-01-30T10:41:47;101620.13;;;18.09;49.68
3544;BME280;1786;52.870;9.578;2024-01-30T10:44:18;101600.44;;;18.10;50.31
3544;BME280;1786;52.870;9.578;2024-01-30T10:46:50;101614.81;;;17.73;51.06
3544;BME280;1786;52.870;9.578;2024-01-30T10:49:21;101612.88;;;17.05;52.38
3544;BME280;1786;52.870;9.578;2024-01-30T10:51:49;101612.44;;;17.93;51.30
3544;BME280;1786;52.870;9.578;2024-01-30T10:54:17;101603.38;;;17.60;51.08
3544;BME280;1786;52.870;9.578;2024-01-30T10:56:44;101599.00;;;17.70;51.33
3544;BME280;1786;52.870;9.578;2024-01-30T10:59:11;101605.19;;;17.24;51.86
3544;BME280;1786;52.870;9.578;2024-01-30T11:01:40;101602.38;;;17.61;51.80
3544;BME280;1786;52.870;9.578;2024-01-30T11:04:07;101599.72;;;17.61;51.27
3544;BME280;1786;52.870;9.578;2024-01-30T11:06:41;101595.88;;;17.30;52.38
3544;BME280;1786;52.870;9.578;2024-01-30T11:09:11;101604.28;;;17.13;52.56
3544;BME280;1786;52.870;9.578;2024-01-30T11:14:15;101595.91;;;17.88;51.10
3544;BME280;1786;52.870;9.578;2024-01-30T11:16:42;101599.78;;;17.84;51.81
3544;BME280;1786;52.870;9.578;2024-01-30T11:19:12;101596.50;;;17.80;51.94
3544;BME280;1786;52.870;9.578;2024-01-30T11:21:41;101606.72;;;17.51;52.27
3544;BME280;1786;52.870;9.578;2024-01-30T11:24:08;101608.56;;;18.08;51.74
3544;BME280;1786;52.870;9.578;2024-01-30T11:26:35;101605.63;;;17.89;51.32
3544;BME280;1786;52.870;9.578;2024-01-30T11:29:07;101599.59;;;17.63;51.88
3544;BME280;1786;52.870;9.578;2024-01-30T11:31:34;101591.97;;;17.69;51.72
3544;BME280;1786;52.870;9.578;2024-01-30T11:34:01;101599.50;;;17.64;51.82
3544;BME280;1786;52.870;9.578;2024-01-30T11:36:28;101598.34;;;17.09;52.93
3544;BME280;1786;52.870;9.578;2024-01-30T11:38:55;101594.34;;;17.39;53.53
3544;BME280;1786;52.870;9.578;2024-01-30T11:41:23;101594.00;;;18.12;52.35
3544;BME280;1786;52.870;9.578;2024-01-30T11:43:53;101586.84;;;18.02;52.17
3544;BME280;1786;52.870;9.578;2024-01-30T11:46:20;101583.41;;;18.45;51.46
3544;BME280;1786;52.870;9.578;2024-01-30T11:48:47;101584.97;;;18.36;51.36
3544;BME280;1786;52.870;9.578;2024-01-30T11:51:14;101587.19;;;17.97;51.99
3544;BME280;1786;52.870;9.578;2024-01-30T11:53:41;101575.47;;;18.32;51.50
3544;BME280;1786;52.870;9.578;2024-01-30T11:56:08;101582.00;;;18.84;50.92
3544;BME280;1786;52.870;9.578;2024-01-30T11:58:35;101580.25;;;18.94;50.36
3544;BME280;1786;52.870;9.578;2024-01-30T12:01:02;101578.56;;;18.93;50.41
3544;BME280;1786;52.870;9.578;2024-01-30T12:03:28;101589.94;;;19.39;50.11
3544;BME280;1786;52.870;9.578;2024-01-30T12:05:58;101588.16;;;19.28;49.96
3544;BME280;1786;52.870;9.578;2024-01-30T12:08:26;101580.91;;;19.40;49.58
3544;BME280;1786;52.870;9.578;2024-01-30T12:10:57;101579.13;;;19.92;48.99
3544;BME280;1786;52.870;9.578;2024-01-30T12:13:32;101572.69;;;19.74;48.68
3544;BME280;1786;52.870;9.578;2024-01-30T12:16:00;101574.66;;;20.02;48.32
3544;BME280;1786;52.870;9.578;2024-01-30T12:18:27;101581.88;;;20.02;48.25
3544;BME280;1786;52.870;9.578;2024-01-30T12:20:59;101577.00;;;19.86;48.90
3544;BME280;1786;52.870;9.578;2024-01-30T12:23:29;101573.72;;;20.13;48.69
3544;BME280;1786;52.870;9.578;2024-01-30T12:25:57;101577.50;;;20.01;48.78
3544;BME280;1786;52.870;9.578;2024-01-30T12:28:23;101564.09;;;20.01;48.41
3544;BME280;1786;52.870;9.578;2024-01-30T12:30:50;101573.13;;;19.58;49.52
3544;BME280;1786;52.870;9.578;2024-01-30T12:33:20;101576.00;;;19.66;49.29
3544;BME280;1786;52.870;9.578;2024-01-30T12:35:48;101584.50;;;19.50;49.67
3544;BME280;1786;52.870;9.578;2024-01-30T12:38:28;101581.53;;;19.32;49.72
3544;BME280;1786;52.870;9.578;2024-01-30T12:40:55;101583.66;;;18.96;50.79
3544;BME280;1786;52.870;9.578;2024-01-30T12:43:23;101583.97;;;18.59;50.83
3544;BME280;1786;52.870;9.578;2024-01-30T12:46:03;101580.34;;;18.38;51.15
3544;BME280;1786;52.870;9.578;2024-01-30T12:48:30;101579.84;;;18.55;51.90
3544;BME280;1786;52.870;9.578;2024-01-30T12:50:57;101583.38;;;19.11;50.71
3544;BME280;1786;52.870;9.578;2024-01-30T12:53:24;101589.22;;;19.05;50.57
3544;BME280;1786;52.870;9.578;2024-01-30T12:55:51;101589.53;;;19.64;50.14
3544;BME280;1786;52.870;9.578;2024-01-30T12:58:18;101584.31;;;19.42;49.92
3544;BME280;1786;52.870;9.578;2024-01-30T13:00:45;101589.91;;;19.71;49.57
3544;BME280;1786;52.870;9.578;2024-01-30T13:03:12;101590.25;;;19.87;49.05
3544;BME280;1786;52.870;9.578;2024-01-30T13:05:39;101586.44;;;20.11;49.33
3544;BME280;1786;52.870;9.578;2024-01-30T13:08:05;101585.91;;;19.86;49.19
3544;BME280;1786;52.870;9.578;2024-01-30T13:10:32;101582.47;;;20.15;48.84
3544;BME280;1786;52.870;9.578;2024-01-30T13:12:59;101590.38;;;20.07;49.07
3544;BME280;1786;52.870;9.578;2024-01-30T13:15:26;101588.13;;;20.12;48.95
3544;BME280;1786;52.870;9.578;2024-01-30T13:17:53;101580.88;;;20.43;48.83